Robert Davies

Recruteur en chef - Portsmouth
28 Oct 2027
Jeudi
Processus

Personnalité

Adaptabilité (2) Ambition (9) Controverse (3) Loyauté (5) Pression (5) Professionnalisme (16) Sportivité (19) Tempérament (8)

Profil

Style d'entraînement Démocratique
Diplôme Continental A
Détermination 10
Gestion des joueurs 12
Motivation 4
Discipline 12
Satisfaction professionnelle
57%
Fatigue
0%
Rôle Recruteur en chef
Salaire 15.8K p/s
Contrat 14.03.2030

Performance

Comportement Bon
Efficacité de l'entraînement
22%
Développement des joueurs
60%
Prévention des blessures
25%
Mise en place tactique
35%

Événements récents

A participé à une réunion de recrutement maintenant
A recommandé une cible de transfert maintenant
A recommandé une cible de transfert maintenant
A recommandé une cible de transfert maintenant
A recommandé une cible de transfert 7j
A recommandé une cible de transfert 7j
A recommandé une cible de transfert 7j
A recommandé une cible de transfert 7j

Suivi en cours

167
Joueur Club Statut Capacité Confiance Observé Dernière observation Dernier vote
Johnly Yfeko Exeter City Actif 109 / 128 76% 1 16.08.2027 Approuver
Nathan Moriah-Welsh Mansfield Town Actif 116 / 129 76% 1 02.08.2027 Approuver
Fuzy Taylor Medeama Actif 73 / 102 40% 1 21.07.2027 -
Keagan Phiri Platinum Stars Actif 105 / 109 40% 1 21.07.2027 -
Gonçalo Oliveira Benfica Actif 113 / 117 40% 1 21.07.2027 -
Joel Ezra Enyimba Actif 87 / 118 40% 1 12.07.2027 -
Tiago Freitas Benfica Actif 117 / 116 40% 1 12.07.2027 -
Hosea Michael Remo Stars Actif 83 / 79 40% 1 12.07.2027 -
Mpho Khethang AS Police Actif 92 / 81 40% 1 21.06.2027 -
Riley Owen Trento Actif 102 / 106 40% 1 21.06.2027 -
Bernardo Lima Porto Actif 94 / 99 40% 1 08.06.2027 -
Jofre Torrents Ajax Actif 121 / 120 40% 1 08.06.2027 -
Leandro Martins Benfica Actif 94 / 93 40% 1 08.06.2027 -
Nicolò Tresoldi Club Brugge Actif 129 / 133 67% 1 01.06.2027 Approuver
André Miranda Porto Actif 101 / 120 40% 1 31.05.2027 -
Gilberto Mora Atlético Madrid Actif 129 / 149 40% 1 31.05.2027 -
Joel McGregor Swindon Town Actif 96 / 99 40% 1 31.05.2027 -
Seymour Reid New York City Actif 101 / 94 40% 1 30.05.2027 -
Iwan Morgan Grimsby Town Actif 111 / 117 40% 7 29.05.2027 -
Inti López River Plate Actif 92 / 104 40% 2 27.05.2027 -
Anestis Mythou PAOK Actif 99 / 102 40% 3 27.05.2027 -
Lorenzo De Leo Renate Actif 95 / 91 40% 6 26.05.2027 -
Leo Castledine Middlesbrough Actif 127 / 138 40% 7 26.05.2027 -
Ognjen Bondžulić Mladost Lucani Actif 100 / 118 40% 4 24.05.2027 -
Chimobi Igwilo Rangers International Actif 83 / 87 40% 2 24.05.2027 -
Paco Esteban Virtus Entella Actif 96 / 105 40% 7 23.05.2027 -
Nicolás Azambuja Cádiz Actif 120 / 132 40% 2 23.05.2027 -
Maren Kefas Plateau United Actif 92 / 103 40% 7 22.05.2027 -
Víctor Guzmán Sporting CP Actif 91 / 108 40% 5 22.05.2027 -
Ruben Ramos LA Galaxy Actif 92 / 108 40% 6 19.05.2027 -
Luke Baartman ES Mostaganem Actif 103 / 126 40% 9 18.05.2027 -
Markus Jensen Nacional Actif 102 / 113 40% 2 18.05.2027 -
Adama Goïta Remo Stars Actif 103 / 91 40% 5 14.05.2027 -
Hazeem Bakre Crawley Town Actif 84 / 82 40% 4 13.05.2027 -
Dilan Neves Benfica Actif 83 / 83 40% 1 11.05.2027 -
Baylee Dipepa Norwich City Actif 99 / 109 40% 5 10.05.2027 -
Ben Ahmed Kohili Paradou Actif 97 / 108 40% 5 09.05.2027 -
Lwanda Mbanjwa Maritzburg United Actif 94 / 110 40% 10 30.04.2027 -
Dilan Godoy Vélez Actif 110 / 105 40% 1 29.04.2027 -
Nicolas Verkooijen PSV Actif 114 / 117 40% 1 28.04.2027 -
Luca Mazzeo Potenza Actif 100 / 91 40% 1 27.04.2027 -
Borna Knezović Casarano Actif 102 / 101 40% 2 25.04.2027 -
Matty Warhurst Manchester City Actif 83 / 82 40% 1 23.04.2027 -
Fletcher Holman Swindon Town Actif 87 / 84 40% 5 22.04.2027 -
Iaia Manco Danfa Borussia Mönchengladbach Actif 99 / 99 40% 1 22.04.2027 -
Dramane Kamagaté USM Alger Actif 105 / 109 40% 3 21.04.2027 -
Sidiki Chérif Coventry City Actif 122 / 122 40% 3 16.04.2027 -
Luca Maiorano Nacional Actif 98 / 112 40% 1 14.04.2027 -
Will Lankshear Middlesbrough Actif 131 / 137 40% 7 12.04.2027 -
Zinho Witsel Mouscron Actif 81 / 91 40% 1 09.04.2027 -
Miloš Jovičić Zabbar St. Patrick Actif 95 / 108 40% 1 08.04.2027 -
Amaury Morales Pumas UNAM Actif 103 / 108 40% 2 07.04.2027 -
Baba N'Diaye Chelyabinsk Actif 82 / 82 40% 2 07.04.2027 -
Mateus Mané Manchester United Actif 127 / 136 40% 2 06.04.2027 -
Angelos Neofytou Omonoia Actif 95 / 101 40% 1 30.03.2027 -
Joseph Arumala Ikorodu City Actif 78 / 109 40% 2 28.03.2027 -
Rocco Vata Watford Actif 123 / 125 40% 7 27.03.2027 -
Federico Serra Arezzo Actif 87 / 101 40% 3 17.03.2027 -
Aidan Dausch AC Ajaccio Actif 75 / 93 40% 2 17.03.2027 -
Shunsuke Saito Westerlo Actif 99 / 96 40% 1 11.03.2027 -
Yuval Ranon Vitesse Actif 86 / 94 40% 1 09.03.2027 -
Dom Ballard Leyton Orient Actif 122 / 117 40% 9 05.03.2027 -
Chineme Chinonso Ikorodu City Actif 86 / 114 40% 4 26.02.2027 -
Agustín Fernández NK Zavrc Actif 88 / 74 40% 3 19.02.2027 -
Rayan Bournemouth Actif 138 / 133 40% 4 16.02.2027 -
Gustavo Ferreira Benfica Actif 85 / 96 40% 2 14.02.2027 -
Abubakar Garba Grasshopper Actif 84 / 91 40% 1 12.02.2027 -
Alagie Wally Veres Actif 94 / 95 40% 2 10.02.2027 -
Ante Brekalo Zadar Actif 107 / 124 40% 1 03.02.2027 -
Florentino Luís Ipswich Town Actif 141 / 135 40% 2 25.01.2027 -
Dennis Cirkin Queens Park Rangers Actif 132 / 116 40% 1 25.01.2027 -
Andreas Trimmel Red Bull Salzburg Actif 131 / 131 60% 1 01.01.2027 Approuver
Jefry Zapata Danubio Actif 118 / 118 67% 1 01.01.2027 Approuver
Harvey White Stevenage Actif 107 / 113 40% 1 31.12.2026 -
Siyanda Ndlovu Bloemfontein Celtic Actif 109 / 116 40% 2 30.12.2026 -
Tommy Conway Middlesbrough Actif 128 / 135 40% 1 30.12.2026 -
Jean Galindo Imotski Actif 93 / 80 40% 1 30.12.2026 -
Ali Ahmed Norwich City Actif 120 / 136 40% 2 28.12.2026 -
Rico Lewis Manchester City Actif 154 / 152 40% 1 25.12.2026 -
Tyler Goodrham Oxford United Actif 111 / 125 40% 1 24.12.2026 -
Sayfallah Ltaief Cracovia Actif 118 / 128 40% 1 24.12.2026 -
Oswin Appollis Orlando Pirates Actif 113 / 123 40% 3 23.12.2026 -
Louie Barry Sheffield Wednesday Actif 129 / 128 40% 1 23.12.2026 -
Harry Clarke Preston Actif 130 / 138 40% 1 23.12.2026 -
Ilyas Ansah Hull City Actif 131 / 121 40% 4 21.12.2026 -
Reda Khadra Qarabag Actif 140 / 135 40% 2 21.12.2026 -
Tom Fellows Southampton Actif 125 / 132 40% 1 19.12.2026 -
Isaiah Jones Luton Town Actif 123 / 121 40% 1 19.12.2026 -
Dávid Strelec Middlesbrough Actif 141 / 124 40% 1 19.12.2026 -
Hassan Beja AFC Leopards Actif 69 / 70 40% 4 17.12.2026 -
Mathias Jørgensen Blackburn Rovers Actif 113 / 105 40% 1 17.12.2026 -
Cian Ashford Cardiff City Actif 116 / 125 40% 1 17.12.2026 -
Telasco Segovia Inter Miami CF Actif 123 / 119 40% 1 16.12.2026 -
Everton Bala Levski Actif 125 / 117 40% 1 15.12.2026 -
Kwame Poku Queens Park Rangers Actif 133 / 136 40% 1 15.12.2026 -
Carlos Vicente Birmingham Actif 139 / 145 40% 1 15.12.2026 -
Micah Burton Austin FC Actif 95 / 77 40% 5 14.12.2026 -
Matvii Ponomarenko Dynamo Kyiv Actif 125 / 110 40% 1 14.12.2026 -
Senny Mayulu Paris Saint-Germain Actif 141 / 151 40% 1 12.12.2026 -
Andy Rojas New York Red Bulls Actif 84 / 110 40% 2 11.12.2026 -
Jonás Luna Santa Clara Actif 109 / 115 40% 2 10.12.2026 -
Alex Harris Colorado Rapids Actif 87 / 98 40% 1 10.12.2026 -
Kabu Agyemang Raymond Bechem United Actif 73 / 93 40% 1 09.12.2026 -
Ezekiel Kwame Alladoh Philadelphia Union Actif 119 / 139 40% 2 07.12.2026 -
Vivaldo Semedo Watford Actif 115 / 128 40% 3 05.12.2026 -
Leon Grgić Sturm Graz Actif 123 / 115 40% 1 04.12.2026 -
Nikolay Zlatev Cherno More Actif 87 / 114 40% 2 03.12.2026 -
Shea Charles Southampton Actif 130 / 129 40% 2 03.12.2026 -
Hamzat Ojediran Colorado Rapids Actif 129 / 119 40% 1 03.12.2026 -
Luke McNally Bristol City Actif 125 / 141 40% 1 03.12.2026 -
Toby Collyer West Bromwich Albion Actif 120 / 129 40% 1 01.12.2026 -
Alexandr Chernikov Krasnodar Actif 142 / 114 40% 1 01.12.2026 -
Luka Jovanović San Jose Earthquakes Actif 110 / 92 40% 2 29.11.2026 -
Endrick Real Madrid Actif 149 / 162 40% 3 28.11.2026 -
Darlvin Yeboah Bechem United Actif 67 / 96 40% 1 25.11.2026 -
Othmane Maamma Watford Actif 116 / 135 40% 2 23.11.2026 -
Thiago Salischiker Rucci HNK Vukovar 1991 Actif 100 / 111 40% 1 23.11.2026 -
Elias Achouri San Diego Football Club Actif 126 / 137 40% 1 23.11.2026 -
Tshepang Moremi Orlando Pirates Actif 103 / 98 40% 2 21.11.2026 -
Thalente Mbatha Orlando Pirates Actif 110 / 124 40% 1 21.11.2026 -
Kasey McAteer Ipswich Town Actif 129 / 130 40% 1 18.11.2026 -
Ethan Williams Peterborough United Actif 105 / 121 40% 1 18.11.2026 -
Marcelo Allende Mamelodi Sundowns Actif 145 / 123 40% 2 16.11.2026 -
Oliver Skipp Leicester City Actif 121 / 120 40% 1 16.11.2026 -
Youssoufa Moukoko FC Copenhagen Actif 119 / 136 40% 5 14.11.2026 -
Sal Olivas Philadelphia Union Actif 86 / 83 40% 1 13.11.2026 -
Jeong Sang-Bin St. Louis CITY SC Actif 125 / 103 40% 1 13.11.2026 -
Amin Boudri Los Angeles Football Club Actif 115 / 141 40% 1 10.11.2026 -
Koki Saito Queens Park Rangers Actif 121 / 121 40% 1 09.11.2026 -
Bongani Modiba Black Aces Actif 108 / 141 40% 1 09.11.2026 -
Mandla Erasmus SuperSport United Actif 110 / 137 40% 2 08.11.2026 -
Ryan Sessegnon Fulham Actif 151 / 131 40% 1 08.11.2026 -
Mohamed Farsi Columbus Crew Actif 120 / 106 40% 1 08.11.2026 -
Darren Yapi Colorado Rapids Actif 117 / 125 40% 4 05.11.2026 -
Tosin Olawale El-Kanemi Warriors Actif 88 / 104 40% 2 04.11.2026 -
Matías Fernández-Pardo Newcastle United Actif 143 / 146 40% 1 03.11.2026 -
Lucas Halter Houston Dynamo Actif 124 / 107 40% 1 02.11.2026 -
Dagur Dan Þórhallsson CF Montreal Actif 121 / 99 40% 1 02.11.2026 -
Archie Goodwin Charlotte Football Club Actif 94 / 129 40% 5 30.10.2026 -
Elías Báez Atlanta United FC Actif 119 / 125 40% 1 29.10.2026 -
James Sands New York City Actif 114 / 124 40% 1 29.10.2026 -
Antony Portland Timbers Actif 138 / 147 40% 1 29.10.2026 -
Joseph Abah Remo Stars Actif 91 / 90 40% 1 29.10.2026 -
Alasana Yirajang AS Trencin Actif 105 / 138 40% 1 26.10.2026 -
Williams Yikat Aigle Royal de Moungo Actif 95 / 101 40% 3 21.10.2026 -
David Kalokoh Ajax Actif 116 / 132 40% 1 20.10.2026 -
Kimani Stewart-Baynes Colorado Rapids Actif 106 / 111 40% 2 15.10.2026 -
Mohammed Yahaya Great Olympics Actif 94 / 68 40% 1 13.10.2026 -
Martín Ojeda Orlando City Actif 124 / 115 40% 1 13.10.2026 -
Yannick Bright Inter Miami CF Actif 125 / 124 40% 1 13.10.2026 -
Marco Pašalić Orlando City Actif 114 / 109 40% 1 12.10.2026 -
Conrad Wallem Austria Wien Actif 126 / 133 40% 1 12.10.2026 -
Gabriel Pirani San Diego Football Club Actif 132 / 149 40% 1 11.10.2026 -
Paxten Aaronson Colorado Rapids Actif 135 / 136 40% 1 11.10.2026 -
Patrick Preciado Deportivo Pasto Actif 104 / 98 40% 2 04.10.2026 -
Kristian Fletcher FC Cincinnati Actif 93 / 95 40% 3 30.09.2026 -
Stefanos Tzimas Brighton Actif 140 / 135 40% 1 21.09.2026 -
Chinedu Onyinjekwu Bayelsa United Actif 101 / 85 40% 2 20.09.2026 -
Ricky Louis FC Dallas Actif 90 / 97 40% 1 17.09.2026 -
Marcus Caldeira Minnesota United FC Actif 82 / 84 40% 2 16.09.2026 -
Owen Graham-Roache CF Montreal Actif 80 / 101 40% 1 15.09.2026 -
Oladimeji Dada Ikorodu City Actif 83 / 74 40% 1 08.09.2026 -
Jerónimo Russo Newell's Old Boys Actif 93 / 112 40% 1 07.09.2026 -
Blessed Iyamu Kun Khalifat Actif 80 / 80 40% 1 31.08.2026 -
Caleb Yirenkyi Coventry City Actif 130 / 125 40% 1 01.08.2026 -
Godwin Oham Warri Wolves Actif 73 / 87 40% 1 01.08.2026 -
Jonny Shore New York City Actif 89 / 117 40% 1 01.08.2026 -